createdAt,value
2022-12-17T00:01:42.036Z,21.43
2022-12-17T00:04:27.983Z,20.37
2022-12-17T00:07:13.877Z,19.27
2022-12-17T00:09:59.825Z,19.80
2022-12-17T00:12:45.700Z,19.57
2022-12-17T00:15:39.152Z,18.87
2022-12-17T00:18:25.565Z,18.20
2022-12-17T00:21:14.316Z,20.60
2022-12-17T00:24:00.266Z,20.73
2022-12-17T00:26:46.384Z,19.87
2022-12-17T00:29:32.200Z,21.13
2022-12-17T00:32:18.330Z,26.20
2022-12-17T00:35:04.137Z,22.83
2022-12-17T00:37:50.015Z,20.63
2022-12-17T00:40:35.963Z,29.65
2022-12-17T00:43:22.919Z,23.77
2022-12-17T00:46:10.936Z,21.93
2022-12-17T00:48:57.118Z,20.80
2022-12-17T00:51:43.646Z,21.27
2022-12-17T00:54:29.579Z,20.03
2022-12-17T00:57:15.596Z,19.07
2022-12-17T01:00:01.592Z,19.50
2022-12-17T01:02:58.246Z,20.93
2022-12-17T01:05:44.047Z,21.03
2022-12-17T01:08:31.734Z,22.92
2022-12-17T01:11:18.804Z,19.97
2022-12-17T01:14:04.775Z,19.63
2022-12-17T01:16:51.003Z,19.27
2022-12-17T01:19:37.749Z,25.23
2022-12-17T01:22:23.661Z,21.53
2022-12-17T01:25:09.572Z,20.43
2022-12-17T01:27:55.367Z,19.53
2022-12-17T01:30:41.931Z,20.17
2022-12-17T01:33:27.926Z,20.50
2022-12-17T01:36:14.316Z,19.97
2022-12-17T01:39:00.471Z,21.87
2022-12-17T01:41:46.274Z,20.63
2022-12-17T01:44:50.707Z,20.03
2022-12-17T01:47:36.877Z,21.13
2022-12-17T01:50:22.885Z,21.43
2022-12-17T01:53:10.511Z,22.00
2022-12-17T01:55:56.507Z,21.07
2022-12-17T01:58:42.408Z,21.03
2022-12-17T02:01:28.385Z,20.13
2022-12-17T02:04:14.202Z,20.23
2022-12-17T02:07:03.102Z,20.77
2022-12-17T02:09:52.958Z,19.53
2022-12-17T02:12:47.512Z,20.23
2022-12-17T02:15:38.498Z,19.43
2022-12-17T02:18:27.244Z,18.53
2022-12-17T02:21:14.302Z,19.40
2022-12-17T02:24:09.911Z,20.83
2022-12-17T02:26:55.781Z,21.60
2022-12-17T02:29:42.258Z,20.17
2022-12-17T02:32:28.862Z,20.73
2022-12-17T02:35:14.717Z,29.75
2022-12-17T02:38:05.699Z,23.00
2022-12-17T02:40:52.206Z,21.53
2022-12-17T02:43:38.720Z,20.00
2022-12-17T02:46:25.435Z,20.27
2022-12-17T02:49:11.033Z,21.87
2022-12-17T02:51:56.815Z,20.40
2022-12-17T02:54:42.722Z,21.07
2022-12-17T02:57:28.569Z,20.50
2022-12-17T03:00:14.400Z,19.97
2022-12-17T03:03:00.379Z,22.53
2022-12-17T03:05:46.265Z,21.23
2022-12-17T03:08:32.790Z,22.07
2022-12-17T03:11:18.581Z,20.17
2022-12-17T03:14:04.590Z,24.67
2022-12-17T03:16:50.606Z,20.73
2022-12-17T03:19:36.517Z,22.03
2022-12-17T03:22:23.616Z,20.47
2022-12-17T03:25:09.640Z,19.83
2022-12-17T03:27:55.480Z,19.63
2022-12-17T03:30:45.675Z,22.10
2022-12-17T03:33:34.581Z,19.93
2022-12-17T03:36:20.374Z,20.13
2022-12-17T03:39:06.234Z,19.37
2022-12-17T03:41:52.115Z,17.93
2022-12-17T03:44:37.981Z,17.60
2022-12-17T03:47:24.074Z,18.00
2022-12-17T03:50:10.031Z,23.67
2022-12-17T03:52:55.854Z,19.07
2022-12-17T03:55:41.736Z,18.27
2022-12-17T03:58:27.599Z,18.53
2022-12-17T04:01:13.631Z,18.90
2022-12-17T04:03:59.455Z,17.33
2022-12-17T04:06:45.303Z,18.27
2022-12-17T04:09:31.414Z,17.63
2022-12-17T04:12:17.348Z,17.23
2022-12-17T04:15:03.131Z,17.57
2022-12-17T04:17:49.102Z,17.97
2022-12-17T04:20:34.996Z,18.13
2022-12-17T04:23:21.031Z,18.60
2022-12-17T04:26:07.104Z,20.20
2022-12-17T04:28:53.011Z,20.05
2022-12-17T04:31:38.946Z,21.00
2022-12-17T04:34:24.774Z,19.93
2022-12-17T04:37:10.565Z,19.87
2022-12-17T04:39:56.469Z,19.53
2022-12-17T04:42:42.286Z,19.63
2022-12-17T04:45:28.134Z,21.53
2022-12-17T04:48:24.716Z,22.80
2022-12-17T04:51:10.621Z,21.23
2022-12-17T04:53:56.456Z,21.17
2022-12-17T04:56:42.453Z,24.70
2022-12-17T04:59:28.494Z,22.63
2022-12-17T05:02:14.347Z,22.57
2022-12-17T05:05:00.222Z,31.58
2022-12-17T05:07:46.189Z,24.13
2022-12-17T05:10:32.136Z,22.27
2022-12-17T05:13:18.708Z,23.37
2022-12-17T05:16:04.673Z,26.00
2022-12-17T05:18:50.676Z,25.07
2022-12-17T05:21:36.554Z,24.77
2022-12-17T05:24:22.377Z,25.83
2022-12-17T05:27:08.382Z,27.20
2022-12-17T05:29:54.252Z,27.20
2022-12-17T05:32:40.067Z,26.37
2022-12-17T05:35:25.993Z,28.20
2022-12-17T05:38:12.027Z,28.90
2022-12-17T05:40:57.938Z,27.27
2022-12-17T05:43:44.174Z,28.33
2022-12-17T05:46:29.952Z,26.67
2022-12-17T05:49:15.793Z,29.33
2022-12-17T05:52:01.826Z,28.17
2022-12-17T05:54:47.693Z,27.20
2022-12-17T05:57:33.677Z,25.80
2022-12-17T06:00:19.434Z,26.93
2022-12-17T06:03:05.448Z,27.20
2022-12-17T06:05:51.314Z,26.97
2022-12-17T06:08:37.118Z,26.87
2022-12-17T06:11:22.928Z,27.00
2022-12-17T06:14:08.746Z,26.83
2022-12-17T06:16:54.548Z,26.90
2022-12-17T06:19:40.481Z,26.67
2022-12-17T06:22:26.245Z,25.70
2022-12-17T06:25:12.236Z,26.30
2022-12-17T06:27:58.248Z,26.53
2022-12-17T06:30:44.044Z,29.10
2022-12-17T06:33:31.280Z,27.50
2022-12-17T06:36:22.543Z,27.40
2022-12-17T06:39:10.230Z,27.20
2022-12-17T06:42:00.479Z,26.73
2022-12-17T06:44:49.781Z,27.53
2022-12-17T06:47:35.700Z,27.57
2022-12-17T06:50:21.773Z,28.13
2022-12-17T06:53:07.636Z,28.30
2022-12-17T06:55:53.526Z,27.27
2022-12-17T06:58:39.329Z,28.90
2022-12-17T07:01:25.495Z,37.10
2022-12-17T07:04:11.202Z,27.93
2022-12-17T07:06:57.029Z,26.77
2022-12-17T07:09:42.928Z,26.80
2022-12-17T07:12:28.860Z,28.50
2022-12-17T07:15:14.710Z,29.10
2022-12-17T07:18:00.750Z,29.27
2022-12-17T07:20:46.501Z,29.83
2022-12-17T07:23:32.502Z,25.70
2022-12-17T07:26:18.209Z,23.40
2022-12-17T07:29:04.039Z,26.23
2022-12-17T07:31:50.015Z,26.67
2022-12-17T07:34:35.828Z,29.58
2022-12-17T07:37:21.655Z,27.03
2022-12-17T07:40:07.642Z,30.37
2022-12-17T07:42:53.580Z,28.80
2022-12-17T07:45:39.630Z,28.67
2022-12-17T07:48:25.315Z,28.07
2022-12-17T07:51:11.207Z,28.47
2022-12-17T07:53:57.332Z,31.47
2022-12-17T07:56:43.213Z,29.33
2022-12-17T07:59:29.205Z,27.77
2022-12-17T08:02:15.498Z,27.10
2022-12-17T08:05:01.103Z,28.93
2022-12-17T08:07:47.101Z,29.07
2022-12-17T08:10:33.017Z,29.27
2022-12-17T08:13:22.974Z,27.73
2022-12-17T08:16:09.097Z,38.20
2022-12-17T08:18:55.126Z,29.97
2022-12-17T08:21:41.038Z,27.73
2022-12-17T08:24:26.972Z,26.80
2022-12-17T08:27:13.166Z,28.33
2022-12-17T08:29:59.147Z,26.63
2022-12-17T08:32:45.052Z,25.57
2022-12-17T08:35:30.996Z,25.73
2022-12-17T08:38:23.587Z,24.50
2022-12-17T08:41:09.464Z,25.00
2022-12-17T08:43:55.514Z,23.80
2022-12-17T08:46:41.342Z,24.80
2022-12-17T08:49:27.309Z,22.97
2022-12-17T08:52:13.268Z,24.30
2022-12-17T08:54:59.129Z,24.83
2022-12-17T08:57:45.109Z,23.87
2022-12-17T09:00:30.928Z,25.57
2022-12-17T09:03:18.170Z,25.33
2022-12-17T09:06:04.192Z,22.97
2022-12-17T09:08:50.017Z,24.50
2022-12-17T09:11:36.058Z,24.77
2022-12-17T09:14:22.101Z,22.60
2022-12-17T09:17:08.128Z,23.10
2022-12-17T09:19:53.798Z,24.43
2022-12-17T09:22:39.784Z,23.27
2022-12-17T09:25:25.973Z,23.77
2022-12-17T09:28:11.968Z,23.47
2022-12-17T09:30:58.017Z,26.13
2022-12-17T09:33:43.767Z,24.20
2022-12-17T09:36:29.853Z,25.07
2022-12-17T09:39:15.726Z,24.33
2022-12-17T09:42:01.622Z,25.67
2022-12-17T09:45:16.174Z,24.27
2022-12-17T09:48:14.686Z,23.60
2022-12-17T09:51:00.554Z,24.17
2022-12-17T09:53:46.462Z,24.87
2022-12-17T09:56:33.596Z,24.50
2022-12-17T09:59:33.211Z,25.43
2022-12-17T10:02:19.597Z,31.77
2022-12-17T10:05:06.680Z,27.00
2022-12-17T10:07:54.790Z,34.30
2022-12-17T10:10:44.961Z,26.60
2022-12-17T10:13:32.717Z,23.77
2022-12-17T10:16:18.556Z,24.40
2022-12-17T10:19:04.778Z,24.67
2022-12-17T10:21:50.776Z,25.23
2022-12-17T10:24:36.600Z,24.63
2022-12-17T10:27:28.985Z,25.53
2022-12-17T10:30:15.064Z,24.97
2022-12-17T10:33:01.061Z,24.33
2022-12-17T10:35:54.616Z,23.23
2022-12-17T10:38:41.980Z,24.93
2022-12-17T10:41:46.518Z,24.80
2022-12-17T10:44:48.625Z,24.37
2022-12-17T10:47:35.684Z,32.03
2022-12-17T10:50:23.597Z,25.77
2022-12-17T10:53:09.507Z,26.50
2022-12-17T10:55:55.288Z,25.53
2022-12-17T10:58:41.133Z,25.07
2022-12-17T11:01:29.721Z,24.17
2022-12-17T11:04:17.004Z,25.77
2022-12-17T11:07:05.458Z,24.60
2022-12-17T11:09:51.342Z,25.40
2022-12-17T11:12:40.682Z,23.53
2022-12-17T11:15:32.333Z,23.90
2022-12-17T11:18:18.178Z,26.17
2022-12-17T11:21:06.734Z,26.60
2022-12-17T11:23:55.570Z,26.60
2022-12-17T11:26:41.666Z,25.03
2022-12-17T11:29:31.364Z,25.70
2022-12-17T11:32:17.080Z,25.87
2022-12-17T11:35:12.654Z,26.47
2022-12-17T11:38:05.239Z,27.00
2022-12-17T11:40:56.752Z,25.90
2022-12-17T11:43:42.630Z,27.03
2022-12-17T11:46:28.567Z,27.43
2022-12-17T11:49:19.903Z,26.00
2022-12-17T11:52:15.732Z,27.27
2022-12-17T11:55:14.482Z,26.20
2022-12-17T12:01:12.574Z,27.70
2022-12-17T12:04:17.450Z,24.50
2022-12-17T12:07:22.400Z,25.67
2022-12-17T12:10:13.944Z,26.23
2022-12-17T12:12:59.824Z,26.60
2022-12-17T12:15:45.711Z,28.07
2022-12-17T12:18:31.705Z,26.57
2022-12-17T12:21:25.402Z,28.57
2022-12-17T12:24:21.266Z,28.67
2022-12-17T12:27:09.663Z,27.80
2022-12-17T12:30:13.494Z,27.87
2022-12-17T12:32:59.309Z,27.27
2022-12-17T12:35:46.813Z,29.00
2022-12-17T12:38:44.424Z,28.07
2022-12-17T12:41:37.495Z,28.23
2022-12-17T12:44:26.049Z,36.42
2022-12-17T12:47:33.664Z,31.13
2022-12-17T12:50:31.186Z,29.20
2022-12-17T12:53:17.556Z,29.67
2022-12-17T12:56:03.654Z,29.57
2022-12-17T12:58:50.707Z,29.77
2022-12-17T13:01:37.440Z,28.53
2022-12-17T13:04:36.940Z,28.70
2022-12-17T13:07:05.757Z,30.33
2022-12-17T13:09:53.158Z,29.30
2022-12-17T13:12:23.946Z,29.33
2022-12-17T13:15:00.509Z,28.63
2022-12-17T13:17:29.749Z,30.27
2022-12-17T13:20:01.504Z,39.45
2022-12-17T13:22:29.919Z,32.17
2022-12-17T13:25:15.868Z,30.53
2022-12-17T13:27:43.392Z,29.40
2022-12-17T13:30:22.533Z,30.33
2022-12-17T13:33:08.274Z,31.83
2022-12-17T13:35:43.940Z,30.87
2022-12-17T13:38:17.117Z,30.27
2022-12-17T13:40:45.409Z,29.97
2022-12-17T13:43:17.178Z,29.80
2022-12-17T13:45:44.392Z,30.57
2022-12-17T13:48:20.807Z,32.00
2022-12-17T13:51:05.336Z,32.17
2022-12-17T13:53:37.621Z,30.20
2022-12-17T13:56:04.820Z,29.33
2022-12-17T13:58:33.294Z,33.42
2022-12-17T14:01:07.436Z,30.87
2022-12-17T14:04:04.409Z,32.43
2022-12-17T14:06:22.387Z,30.87
2022-12-17T14:08:50.232Z,30.53
2022-12-17T14:11:35.709Z,31.77
2022-12-17T14:14:03.176Z,30.10
2022-12-17T14:16:30.404Z,31.70
2022-12-17T14:18:59.168Z,33.67
2022-12-17T14:21:27.373Z,33.80
2022-12-17T14:23:54.871Z,33.33
2022-12-17T14:26:22.282Z,32.23
2022-12-17T14:28:51.014Z,33.83
2022-12-17T14:31:27.541Z,35.83
2022-12-17T14:34:10.689Z,42.25
2022-12-17T14:36:42.510Z,34.33
2022-12-17T14:39:18.290Z,33.87
2022-12-17T14:42:04.453Z,34.43
2022-12-17T14:44:31.952Z,34.87
2022-12-17T14:47:12.831Z,33.37
2022-12-17T14:49:53.722Z,36.13
2022-12-17T14:52:33.216Z,35.80
2022-12-17T14:55:00.570Z,34.53
2022-12-17T14:57:27.624Z,34.73
2022-12-17T14:59:54.675Z,33.67
2022-12-17T15:02:24.103Z,36.23
2022-12-17T15:04:52.104Z,35.23
2022-12-17T15:07:23.351Z,34.97
2022-12-17T15:09:52.429Z,35.77
2022-12-17T15:12:20.311Z,36.97
2022-12-17T15:14:47.823Z,40.38
2022-12-17T15:17:15.468Z,37.83
2022-12-17T15:19:42.594Z,35.63
2022-12-17T15:22:18.798Z,34.20
2022-12-17T15:24:45.927Z,35.37
2022-12-17T15:27:14.248Z,36.07
2022-12-17T15:29:41.376Z,34.70
2022-12-17T15:32:08.522Z,35.30
2022-12-17T15:34:35.596Z,38.13
2022-12-17T15:37:02.692Z,37.37
2022-12-17T15:39:29.726Z,37.13
2022-12-17T15:42:15.272Z,37.83
2022-12-17T15:44:42.313Z,37.07
2022-12-17T15:47:09.360Z,39.43
2022-12-17T15:49:36.409Z,42.87
2022-12-17T15:52:03.472Z,41.47
2022-12-17T15:54:30.498Z,41.00
2022-12-17T15:56:58.142Z,39.87
2022-12-17T15:59:25.209Z,39.53
2022-12-17T16:01:52.402Z,42.50
2022-12-17T16:04:25.005Z,40.50
2022-12-17T16:06:52.320Z,37.70
2022-12-17T16:09:19.531Z,39.50
2022-12-17T16:11:46.575Z,37.93
2022-12-17T16:14:13.602Z,41.80
2022-12-17T16:16:40.658Z,37.63
2022-12-17T16:19:07.681Z,37.93
2022-12-17T16:21:34.705Z,38.07
2022-12-17T16:24:01.802Z,37.13
2022-12-17T16:26:28.832Z,37.23
2022-12-17T16:28:57.630Z,43.37
2022-12-17T16:31:24.858Z,46.67
2022-12-17T16:33:51.938Z,49.73
2022-12-17T16:36:20.958Z,43.73
2022-12-17T16:38:52.326Z,44.50
2022-12-17T16:41:19.876Z,47.70
2022-12-17T16:43:47.532Z,50.77
2022-12-17T16:46:24.375Z,46.87
2022-12-17T16:48:51.632Z,66.77
2022-12-17T16:51:27.945Z,47.20
2022-12-17T16:53:55.883Z,91.53
2022-12-17T16:56:24.610Z,94.90
2022-12-17T16:58:52.623Z,54.73
2022-12-17T17:01:23.583Z,69.30
2022-12-17T17:03:51.029Z,70.23
2022-12-17T17:06:18.757Z,105.18
2022-12-17T17:08:46.097Z,83.77
2022-12-17T17:11:21.317Z,67.13
2022-12-17T17:13:52.351Z,49.10
2022-12-17T17:16:20.509Z,48.73
2022-12-17T17:18:47.602Z,53.67
2022-12-17T17:21:16.080Z,48.67
2022-12-17T17:23:43.524Z,52.50
2022-12-17T17:26:11.145Z,51.17
2022-12-17T17:28:38.933Z,58.80
2022-12-17T17:31:07.840Z,49.40
2022-12-17T17:33:36.733Z,41.80
2022-12-17T17:36:11.368Z,41.60
2022-12-17T17:38:40.080Z,43.03
2022-12-17T17:41:08.040Z,43.90
2022-12-17T17:43:35.118Z,46.87
2022-12-17T17:46:10.318Z,45.73
2022-12-17T17:48:38.191Z,43.73
2022-12-17T17:51:11.512Z,44.97
2022-12-17T17:53:38.703Z,45.53
2022-12-17T17:56:07.001Z,44.30
2022-12-17T17:58:34.726Z,56.40
2022-12-17T18:01:07.979Z,64.13
2022-12-17T18:03:35.067Z,50.03
2022-12-17T18:06:06.035Z,48.13
2022-12-17T18:08:33.811Z,46.60
2022-12-17T18:11:01.637Z,55.73
2022-12-17T18:13:50.991Z,59.57
2022-12-17T18:16:18.149Z,43.33
2022-12-17T18:18:45.601Z,44.77
2022-12-17T18:21:14.535Z,43.90
2022-12-17T18:23:42.125Z,42.30
2022-12-17T18:26:10.085Z,43.73
2022-12-17T18:28:38.524Z,42.63
2022-12-17T18:31:26.190Z,43.43
2022-12-17T18:33:54.812Z,44.07
2022-12-17T18:36:24.290Z,44.97
2022-12-17T18:38:58.125Z,40.70
2022-12-17T18:41:43.968Z,41.00
2022-12-17T18:44:11.603Z,43.70
2022-12-17T18:46:38.788Z,51.37
2022-12-17T18:49:07.082Z,44.43
2022-12-17T18:51:34.806Z,42.77
2022-12-17T18:54:02.844Z,41.00
2022-12-17T18:56:59.528Z,44.03
2022-12-17T18:59:18.843Z,48.60
2022-12-17T19:01:46.379Z,43.77
2022-12-17T19:04:14.726Z,44.10
2022-12-17T19:06:43.091Z,41.47
2022-12-17T19:09:17.809Z,44.53
2022-12-17T19:11:44.940Z,41.87
2022-12-17T19:14:12.209Z,59.47
2022-12-17T19:16:40.263Z,46.83
2022-12-17T19:19:07.323Z,44.57
2022-12-17T19:21:34.794Z,42.57
2022-12-17T19:24:03.133Z,43.63
2022-12-17T19:26:30.635Z,41.47
2022-12-17T19:28:58.673Z,42.00
2022-12-17T19:31:27.487Z,40.83
2022-12-17T19:33:58.810Z,43.83
2022-12-17T19:36:28.415Z,43.57
2022-12-17T19:38:56.954Z,45.17
2022-12-17T19:41:24.330Z,44.50
2022-12-17T19:44:01.215Z,44.57
2022-12-17T19:46:29.303Z,42.77
2022-12-17T19:48:57.267Z,55.85
2022-12-17T19:51:25.504Z,47.70
2022-12-17T19:53:52.546Z,45.10
2022-12-17T19:56:21.227Z,41.30
2022-12-17T19:58:53.274Z,43.43
2022-12-17T20:01:22.507Z,42.40
2022-12-17T20:03:50.350Z,42.70
2022-12-17T20:06:18.360Z,43.20
2022-12-17T20:08:45.763Z,43.53
2022-12-17T20:11:32.767Z,43.80
2022-12-17T20:14:01.452Z,42.37
2022-12-17T20:16:29.827Z,40.50
2022-12-17T20:18:57.060Z,62.17
2022-12-17T20:21:24.189Z,49.07
2022-12-17T20:23:51.376Z,45.87
2022-12-17T20:26:18.565Z,45.00
2022-12-17T20:28:46.452Z,52.25
2022-12-17T20:31:13.887Z,44.70
2022-12-17T20:33:41.102Z,41.37
2022-12-17T20:36:09.748Z,44.27
2022-12-17T20:38:37.610Z,44.03
2022-12-17T20:41:12.086Z,45.00
2022-12-17T20:43:39.218Z,45.00
2022-12-17T20:46:07.338Z,43.93
2022-12-17T20:48:34.504Z,43.17
2022-12-17T20:51:05.394Z,41.53
2022-12-17T20:53:34.203Z,40.10
2022-12-17T20:56:02.345Z,40.23
2022-12-17T20:58:29.843Z,42.47
2022-12-17T21:01:10.889Z,39.87
2022-12-17T21:03:39.099Z,48.67
2022-12-17T21:06:11.117Z,43.83
2022-12-17T21:08:47.725Z,41.77
2022-12-17T21:11:17.608Z,39.00
2022-12-17T21:13:44.760Z,40.37
2022-12-17T21:16:13.643Z,40.87
2022-12-17T21:18:41.471Z,39.93
2022-12-17T21:21:14.039Z,40.60
2022-12-17T21:23:41.390Z,40.97
2022-12-17T21:26:10.584Z,39.93
2022-12-17T21:28:39.022Z,40.43
2022-12-17T21:31:06.502Z,38.07
2022-12-17T21:33:33.647Z,39.53
2022-12-17T21:36:01.841Z,40.37
2022-12-17T21:38:34.840Z,38.10
2022-12-17T21:41:08.941Z,42.33
2022-12-17T21:43:37.100Z,48.78
2022-12-17T21:46:05.067Z,39.53
2022-12-17T21:48:35.576Z,40.03
2022-12-17T21:51:07.395Z,45.17
2022-12-17T21:53:35.275Z,38.10
2022-12-17T21:56:03.165Z,36.75
2022-12-17T21:58:30.513Z,40.47
2022-12-17T22:00:58.359Z,46.15
2022-12-17T22:03:25.637Z,39.93
2022-12-17T22:05:52.669Z,39.70
2022-12-17T22:08:19.722Z,39.90
2022-12-17T22:10:47.704Z,37.33
2022-12-17T22:13:38.597Z,38.00
2022-12-17T22:16:08.787Z,38.50
2022-12-17T22:18:36.100Z,43.75
2022-12-17T22:21:03.539Z,40.13
2022-12-17T22:23:30.587Z,38.90
2022-12-17T22:25:58.045Z,39.83
2022-12-17T22:28:25.137Z,39.37
2022-12-17T22:31:11.346Z,38.43
2022-12-17T22:34:02.703Z,37.33
2022-12-17T22:38:39.383Z,38.45
2022-12-17T22:41:22.167Z,35.53
2022-12-17T22:44:41.441Z,36.53
2022-12-17T22:45:11.352Z,35.53
2022-12-17T22:47:39.328Z,35.57
2022-12-17T22:50:06.592Z,35.97
2022-12-17T22:52:34.219Z,39.93
2022-12-17T22:55:01.768Z,36.83
2022-12-17T22:57:36.332Z,38.37
2022-12-17T23:00:07.882Z,48.63
2022-12-17T23:02:34.938Z,39.30
2022-12-17T23:05:01.960Z,34.63
2022-12-17T23:07:31.964Z,36.83
2022-12-17T23:09:59.272Z,33.63
2022-12-17T23:12:44.868Z,36.07
2022-12-17T23:15:12.319Z,34.28
2022-12-17T23:17:39.343Z,35.17
2022-12-17T23:20:07.093Z,35.28
2022-12-17T23:22:34.142Z,35.88
2022-12-17T23:25:01.183Z,35.08
2022-12-17T23:27:28.206Z,35.37
2022-12-17T23:29:55.281Z,36.30
2022-12-17T23:32:22.296Z,34.72
2022-12-17T23:34:49.375Z,50.63
2022-12-17T23:37:16.488Z,40.22
2022-12-17T23:39:43.500Z,38.28
2022-12-17T23:42:10.659Z,36.25
2022-12-17T23:44:37.704Z,35.22
2022-12-17T23:47:04.807Z,33.42
2022-12-17T23:49:31.890Z,34.70
2022-12-17T23:51:58.913Z,34.17
2022-12-17T23:54:26.058Z,34.03
2022-12-17T23:56:53.220Z,34.42
2022-12-17T23:59:20.295Z,35.50
